Cloncurry, Australia
Current Conditions -  °F | °C
As of 1:00 PM on Monday 22 Dec 2014 (Local Time) from YBMA Reporting Station
Clear Clear  
Wind Chill: 99°   Ceiling: Unl
Heat Index: 99°   Visibility: 6mi
Dew Point: 61°   Wind: 9mph
Humidity: 29%   Direction: 320°NW
Pressure: 29.83"   Gusts: NA
Location:  20.7°S, 140.51°E
Report Text: YBMA 220300Z 32008KT CAVOK 37/16 Q1010
Loading
Personal Weather Stations






























Interactive Weather Map New forecast layout! Learn more

10-Day Weather Forecast

Advertisements
Track Severe Weather on mobile